sensor_id;sensor_type;location;lat;lon;timestamp;pressure;altitude;pressure_sealevel;temperature;humidity
60246;BME280;46107;53.356;-1.524;2023-04-10T00:02:17;98467.55;;;7.93;65.89
60246;BME280;46107;53.356;-1.524;2023-04-10T00:04:45;98466.98;;;8.07;65.68
60246;BME280;46107;53.356;-1.524;2023-04-10T00:07:13;98465.00;;;7.45;68.90
60246;BME280;46107;53.356;-1.524;2023-04-10T00:09:41;98459.38;;;7.56;67.42
60246;BME280;46107;53.356;-1.524;2023-04-10T00:12:09;98453.49;;;7.53;69.87
60246;BME280;46107;53.356;-1.524;2023-04-10T00:14:37;98448.95;;;7.82;67.80
60246;BME280;46107;53.356;-1.524;2023-04-10T00:17:06;98448.78;;;7.34;70.70
60246;BME280;46107;53.356;-1.524;2023-04-10T00:19:33;98444.54;;;7.67;68.77
60246;BME280;46107;53.356;-1.524;2023-04-10T00:22:02;98432.18;;;7.60;70.83
60246;BME280;46107;53.356;-1.524;2023-04-10T00:24:31;98427.24;;;8.47;69.01
60246;BME280;46107;53.356;-1.524;2023-04-10T00:26:58;98422.79;;;7.32;70.44
60246;BME280;46107;53.356;-1.524;2023-04-10T00:29:26;98415.57;;;8.17;69.89
60246;BME280;46107;53.356;-1.524;2023-04-10T00:31:54;98412.08;;;7.58;70.76
60246;BME280;46107;53.356;-1.524;2023-04-10T00:34:22;98412.32;;;8.07;70.71
60246;BME280;46107;53.356;-1.524;2023-04-10T00:36:50;98416.23;;;7.32;71.02
60246;BME280;46107;53.356;-1.524;2023-04-10T00:39:18;98411.06;;;7.22;73.05
60246;BME280;46107;53.356;-1.524;2023-04-10T00:41:45;98401.83;;;7.56;72.64
60246;BME280;46107;53.356;-1.524;2023-04-10T00:44:13;98399.31;;;7.46;73.96
60246;BME280;46107;53.356;-1.524;2023-04-10T00:46:41;98402.22;;;7.66;70.93
60246;BME280;46107;53.356;-1.524;2023-04-10T00:49:10;98395.72;;;7.53;72.18
60246;BME280;46107;53.356;-1.524;2023-04-10T00:51:37;98389.71;;;6.77;73.63
60246;BME280;46107;53.356;-1.524;2023-04-10T00:54:05;98387.64;;;6.97;75.26
60246;BME280;46107;53.356;-1.524;2023-04-10T00:56:32;98390.20;;;7.17;74.24
60246;BME280;46107;53.356;-1.524;2023-04-10T00:59:00;98391.32;;;7.66;73.64
60246;BME280;46107;53.356;-1.524;2023-04-10T01:01:28;98386.89;;;6.95;75.83
60246;BME280;46107;53.356;-1.524;2023-04-10T01:03:55;98385.05;;;7.77;75.22
60246;BME280;46107;53.356;-1.524;2023-04-10T01:06:31;98374.78;;;7.01;78.53
60246;BME280;46107;53.356;-1.524;2023-04-10T01:09:07;98374.06;;;7.51;80.76
60246;BME280;46107;53.356;-1.524;2023-04-10T01:11:46;98372.54;;;7.19;80.55
60246;BME280;46107;53.356;-1.524;2023-04-10T01:14:26;98362.46;;;7.13;81.93
60246;BME280;46107;53.356;-1.524;2023-04-10T01:16:59;98354.11;;;6.71;82.81
60246;BME280;46107;53.356;-1.524;2023-04-10T01:19:44;98349.50;;;7.50;81.12
60246;BME280;46107;53.356;-1.524;2023-04-10T01:22:18;98353.17;;;7.45;81.56
60246;BME280;46107;53.356;-1.524;2023-04-10T01:25:00;98351.48;;;6.68;84.86
60246;BME280;46107;53.356;-1.524;2023-04-10T01:27:51;98344.81;;;7.32;82.88
60246;BME280;46107;53.356;-1.524;2023-04-10T01:30:28;98344.62;;;8.03;80.49
60246;BME280;46107;53.356;-1.524;2023-04-10T01:32:59;98345.93;;;7.23;81.57
60246;BME280;46107;53.356;-1.524;2023-04-10T01:35:29;98350.53;;;6.82;83.24
60246;BME280;46107;53.356;-1.524;2023-04-10T01:38:01;98334.84;;;6.76;85.62
60246;BME280;46107;53.356;-1.524;2023-04-10T01:40:32;98330.19;;;7.15;83.78
60246;BME280;46107;53.356;-1.524;2023-04-10T01:43:01;98327.17;;;7.55;80.16
60246;BME280;46107;53.356;-1.524;2023-04-10T01:45:31;98326.94;;;7.51;80.18
60246;BME280;46107;53.356;-1.524;2023-04-10T01:48:00;98322.08;;;7.65;80.39
60246;BME280;46107;53.356;-1.524;2023-04-10T01:50:28;98310.01;;;6.70;82.00
60246;BME280;46107;53.356;-1.524;2023-04-10T01:52:58;98304.24;;;7.19;81.90
60246;BME280;46107;53.356;-1.524;2023-04-10T01:55:27;98308.35;;;7.57;80.12
60246;BME280;46107;53.356;-1.524;2023-04-10T01:57:55;98304.05;;;7.73;79.60
60246;BME280;46107;53.356;-1.524;2023-04-10T02:00:22;98296.17;;;7.38;80.52
60246;BME280;46107;53.356;-1.524;2023-04-10T02:02:50;98287.25;;;7.72;81.73
60246;BME280;46107;53.356;-1.524;2023-04-10T02:05:18;98294.84;;;6.47;86.89
60246;BME280;46107;53.356;-1.524;2023-04-10T02:07:51;98295.28;;;6.84;86.30
60246;BME280;46107;53.356;-1.524;2023-04-10T02:10:29;98296.09;;;6.83;86.63
60246;BME280;46107;53.356;-1.524;2023-04-10T02:13:02;98301.80;;;6.66;86.82
60246;BME280;46107;53.356;-1.524;2023-04-10T02:15:32;98296.58;;;7.23;84.31
60246;BME280;46107;53.356;-1.524;2023-04-10T02:18:02;98283.66;;;7.29;86.67
60246;BME280;46107;53.356;-1.524;2023-04-10T02:20:30;98280.29;;;6.80;87.76
60246;BME280;46107;53.356;-1.524;2023-04-10T02:22:58;98280.90;;;7.03;87.62
60246;BME280;46107;53.356;-1.524;2023-04-10T02:25:27;98278.14;;;7.88;84.34
60246;BME280;46107;53.356;-1.524;2023-04-10T02:27:57;98279.64;;;7.20;85.55
60246;BME280;46107;53.356;-1.524;2023-04-10T02:30:26;98276.25;;;7.46;86.11
60246;BME280;46107;53.356;-1.524;2023-04-10T02:32:53;98271.75;;;7.54;85.15
60246;BME280;46107;53.356;-1.524;2023-04-10T02:35:21;98263.39;;;7.54;84.13
60246;BME280;46107;53.356;-1.524;2023-04-10T02:37:49;98262.62;;;8.31;80.52
60246;BME280;46107;53.356;-1.524;2023-04-10T02:40:17;98252.02;;;7.74;83.29
60246;BME280;46107;53.356;-1.524;2023-04-10T02:42:44;98248.75;;;8.11;81.85
60246;BME280;46107;53.356;-1.524;2023-04-10T02:45:12;98241.09;;;7.99;81.35
60246;BME280;46107;53.356;-1.524;2023-04-10T02:47:40;98235.64;;;8.33;82.11
60246;BME280;46107;53.356;-1.524;2023-04-10T02:50:08;98228.30;;;7.80;83.16
60246;BME280;46107;53.356;-1.524;2023-04-10T02:52:36;98221.90;;;7.99;82.21
60246;BME280;46107;53.356;-1.524;2023-04-10T02:55:04;98217.19;;;6.95;85.45
60246;BME280;46107;53.356;-1.524;2023-04-10T02:57:33;98222.96;;;7.77;84.19
60246;BME280;46107;53.356;-1.524;2023-04-10T03:00:00;98208.77;;;7.19;88.11
60246;BME280;46107;53.356;-1.524;2023-04-10T03:02:28;98195.94;;;7.55;85.33
60246;BME280;46107;53.356;-1.524;2023-04-10T03:04:56;98194.02;;;7.16;86.62
60246;BME280;46107;53.356;-1.524;2023-04-10T03:07:23;98189.56;;;7.38;86.69
60246;BME280;46107;53.356;-1.524;2023-04-10T03:09:51;98182.06;;;7.41;88.56
60246;BME280;46107;53.356;-1.524;2023-04-10T03:12:19;98171.92;;;7.36;88.74
60246;BME280;46107;53.356;-1.524;2023-04-10T03:14:46;98168.57;;;7.00;89.14
60246;BME280;46107;53.356;-1.524;2023-04-10T03:17:14;98165.27;;;7.11;91.36
60246;BME280;46107;53.356;-1.524;2023-04-10T03:19:41;98159.89;;;7.29;89.54
60246;BME280;46107;53.356;-1.524;2023-04-10T03:22:09;98160.00;;;7.39;88.03
60246;BME280;46107;53.356;-1.524;2023-04-10T03:24:37;98161.56;;;7.26;87.64
60246;BME280;46107;53.356;-1.524;2023-04-10T03:27:05;98154.22;;;8.06;87.05
60246;BME280;46107;53.356;-1.524;2023-04-10T03:29:32;98147.14;;;7.55;86.91
60246;BME280;46107;53.356;-1.524;2023-04-10T03:32:00;98147.18;;;7.79;86.51
60246;BME280;46107;53.356;-1.524;2023-04-10T03:34:27;98150.92;;;8.05;86.05
60246;BME280;46107;53.356;-1.524;2023-04-10T03:36:55;98147.26;;;7.90;85.44
60246;BME280;46107;53.356;-1.524;2023-04-10T03:39:23;98147.34;;;8.32;83.70
60246;BME280;46107;53.356;-1.524;2023-04-10T03:41:50;98144.62;;;7.97;84.20
60246;BME280;46107;53.356;-1.524;2023-04-10T03:44:17;98148.79;;;8.32;81.63
60246;BME280;46107;53.356;-1.524;2023-04-10T03:46:45;98152.98;;;8.06;83.36
60246;BME280;46107;53.356;-1.524;2023-04-10T03:49:13;98155.27;;;7.70;84.43
60246;BME280;46107;53.356;-1.524;2023-04-10T03:51:41;98158.56;;;7.89;84.67
60246;BME280;46107;53.356;-1.524;2023-04-10T03:54:09;98155.07;;;8.23;82.84
60246;BME280;46107;53.356;-1.524;2023-04-10T03:56:37;98151.29;;;8.01;83.55
60246;BME280;46107;53.356;-1.524;2023-04-10T03:59:04;98145.75;;;7.48;84.70
60246;BME280;46107;53.356;-1.524;2023-04-10T04:01:32;98138.64;;;7.94;85.76
60246;BME280;46107;53.356;-1.524;2023-04-10T04:04:00;98132.41;;;8.76;81.46
60246;BME280;46107;53.356;-1.524;2023-04-10T04:06:28;98126.57;;;8.62;81.91
60246;BME280;46107;53.356;-1.524;2023-04-10T04:08:56;98123.56;;;8.22;82.62
60246;BME280;46107;53.356;-1.524;2023-04-10T04:11:24;98119.72;;;8.30;81.67
60246;BME280;46107;53.356;-1.524;2023-04-10T04:13:51;98123.47;;;8.69;81.93
60246;BME280;46107;53.356;-1.524;2023-04-10T04:16:18;98116.17;;;7.90;83.57
60246;BME280;46107;53.356;-1.524;2023-04-10T04:18:46;98122.33;;;8.84;82.71
60246;BME280;46107;53.356;-1.524;2023-04-10T04:21:14;98114.65;;;8.05;82.80
60246;BME280;46107;53.356;-1.524;2023-04-10T04:23:42;98116.88;;;7.91;84.56
60246;BME280;46107;53.356;-1.524;2023-04-10T04:26:09;98113.53;;;7.83;84.92
60246;BME280;46107;53.356;-1.524;2023-04-10T04:28:37;98103.59;;;9.07;81.65
60246;BME280;46107;53.356;-1.524;2023-04-10T04:31:05;98099.30;;;9.21;80.27
60246;BME280;46107;53.356;-1.524;2023-04-10T04:33:33;98101.38;;;8.12;83.24
60246;BME280;46107;53.356;-1.524;2023-04-10T04:36:01;98103.27;;;9.22;80.40
60246;BME280;46107;53.356;-1.524;2023-04-10T04:38:29;98104.57;;;8.25;85.67
60246;BME280;46107;53.356;-1.524;2023-04-10T04:40:57;98103.46;;;8.06;85.20
60246;BME280;46107;53.356;-1.524;2023-04-10T04:43:24;98097.55;;;7.97;83.63
60246;BME280;46107;53.356;-1.524;2023-04-10T04:45:52;98097.46;;;8.37;82.00
60246;BME280;46107;53.356;-1.524;2023-04-10T04:48:19;98092.04;;;9.00;80.07
60246;BME280;46107;53.356;-1.524;2023-04-10T04:50:47;98092.90;;;8.50;82.11
60246;BME280;46107;53.356;-1.524;2023-04-10T04:53:14;98083.81;;;8.95;79.97
60246;BME280;46107;53.356;-1.524;2023-04-10T04:55:42;98080.17;;;9.31;78.51
60246;BME280;46107;53.356;-1.524;2023-04-10T04:58:09;98081.31;;;9.32;77.79
60246;BME280;46107;53.356;-1.524;2023-04-10T05:00:37;98083.97;;;9.18;79.74
60246;BME280;46107;53.356;-1.524;2023-04-10T05:03:05;98077.12;;;8.94;79.70
60246;BME280;46107;53.356;-1.524;2023-04-10T05:05:33;98082.65;;;9.40;79.39
60246;BME280;46107;53.356;-1.524;2023-04-10T05:08:00;98086.66;;;8.74;80.32
60246;BME280;46107;53.356;-1.524;2023-04-10T05:10:28;98084.75;;;8.57;81.18
60246;BME280;46107;53.356;-1.524;2023-04-10T05:12:55;98081.45;;;8.85;80.26
60246;BME280;46107;53.356;-1.524;2023-04-10T05:15:23;98076.38;;;9.20;78.90
60246;BME280;46107;53.356;-1.524;2023-04-10T05:17:51;98073.85;;;9.97;75.62
60246;BME280;46107;53.356;-1.524;2023-04-10T05:20:19;98064.89;;;10.31;73.88
60246;BME280;46107;53.356;-1.524;2023-04-10T05:22:47;98064.23;;;10.09;75.29
60246;BME280;46107;53.356;-1.524;2023-04-10T05:25:14;98063.86;;;9.88;74.38
60246;BME280;46107;53.356;-1.524;2023-04-10T05:27:42;98058.44;;;9.79;75.00
60246;BME280;46107;53.356;-1.524;2023-04-10T05:30:11;98052.97;;;8.94;80.07
60246;BME280;46107;53.356;-1.524;2023-04-10T05:32:38;98050.82;;;9.06;78.11
60246;BME280;46107;53.356;-1.524;2023-04-10T05:35:07;98045.54;;;9.21;79.50
60246;BME280;46107;53.356;-1.524;2023-04-10T05:37:35;98046.89;;;9.10;79.39
60246;BME280;46107;53.356;-1.524;2023-04-10T05:40:02;98048.74;;;9.02;78.03
60246;BME280;46107;53.356;-1.524;2023-04-10T05:42:30;98047.93;;;9.73;75.91
60246;BME280;46107;53.356;-1.524;2023-04-10T05:44:58;98044.87;;;8.81;80.10
60246;BME280;46107;53.356;-1.524;2023-04-10T05:47:26;98039.72;;;9.04;80.36
60246;BME280;46107;53.356;-1.524;2023-04-10T05:49:53;98036.92;;;8.90;79.87
60246;BME280;46107;53.356;-1.524;2023-04-10T05:52:20;98038.96;;;10.12;76.36
60246;BME280;46107;53.356;-1.524;2023-04-10T05:54:48;98035.33;;;9.67;76.62
60246;BME280;46107;53.356;-1.524;2023-04-10T05:57:15;98036.29;;;8.49;80.07
60246;BME280;46107;53.356;-1.524;2023-04-10T05:59:43;98029.16;;;10.12;75.48
60246;BME280;46107;53.356;-1.524;2023-04-10T06:02:11;98023.91;;;10.40;73.29
60246;BME280;46107;53.356;-1.524;2023-04-10T06:04:38;98019.20;;;9.86;75.40
60246;BME280;46107;53.356;-1.524;2023-04-10T06:07:06;98024.54;;;9.77;76.56
60246;BME280;46107;53.356;-1.524;2023-04-10T06:09:34;98025.36;;;9.72;77.22
60246;BME280;46107;53.356;-1.524;2023-04-10T06:12:02;98012.48;;;9.76;76.35
60246;BME280;46107;53.356;-1.524;2023-04-10T06:14:29;98004.53;;;9.62;76.10
60246;BME280;46107;53.356;-1.524;2023-04-10T06:16:57;98006.04;;;9.54;75.41
60246;BME280;46107;53.356;-1.524;2023-04-10T06:19:24;98006.57;;;10.24;73.97
60246;BME280;46107;53.356;-1.524;2023-04-10T06:21:52;98008.47;;;10.20;73.47
60246;BME280;46107;53.356;-1.524;2023-04-10T06:24:19;98007.72;;;10.12;74.07
60246;BME280;46107;53.356;-1.524;2023-04-10T06:26:47;98007.01;;;10.60;73.34
60246;BME280;46107;53.356;-1.524;2023-04-10T06:29:14;98005.20;;;10.80;72.96
60246;BME280;46107;53.356;-1.524;2023-04-10T06:31:42;97997.97;;;10.32;74.25
60246;BME280;46107;53.356;-1.524;2023-04-10T06:34:10;97990.96;;;10.19;74.19
60246;BME280;46107;53.356;-1.524;2023-04-10T06:36:37;97982.59;;;10.06;75.26
60246;BME280;46107;53.356;-1.524;2023-04-10T06:39:04;97981.92;;;9.96;75.15
60246;BME280;46107;53.356;-1.524;2023-04-10T06:41:32;97988.25;;;10.42;74.44
60246;BME280;46107;53.356;-1.524;2023-04-10T06:43:59;97986.26;;;9.20;77.85
60246;BME280;46107;53.356;-1.524;2023-04-10T06:46:27;97987.43;;;10.15;76.06
60246;BME280;46107;53.356;-1.524;2023-04-10T06:48:54;97982.68;;;9.63;77.32
60246;BME280;46107;53.356;-1.524;2023-04-10T06:51:22;97979.08;;;10.27;75.91
60246;BME280;46107;53.356;-1.524;2023-04-10T06:53:49;97968.55;;;9.19;79.80
60246;BME280;46107;53.356;-1.524;2023-04-10T06:56:17;97965.86;;;10.22;76.80
60246;BME280;46107;53.356;-1.524;2023-04-10T06:58:45;97962.64;;;9.77;76.09
60246;BME280;46107;53.356;-1.524;2023-04-10T07:01:12;97954.52;;;10.17;76.34
60246;BME280;46107;53.356;-1.524;2023-04-10T07:03:40;97951.83;;;10.21;75.38
60246;BME280;46107;53.356;-1.524;2023-04-10T07:06:09;97957.33;;;9.94;75.99
60246;BME280;46107;53.356;-1.524;2023-04-10T07:08:37;97955.19;;;10.47;74.89
60246;BME280;46107;53.356;-1.524;2023-04-10T07:11:05;97950.98;;;11.01;72.83
60246;BME280;46107;53.356;-1.524;2023-04-10T07:13:33;97946.29;;;10.27;74.85
60246;BME280;46107;53.356;-1.524;2023-04-10T07:16:01;97934.81;;;10.41;73.14
60246;BME280;46107;53.356;-1.524;2023-04-10T07:18:28;97929.89;;;9.70;77.12
60246;BME280;46107;53.356;-1.524;2023-04-10T07:20:56;97937.26;;;10.12;75.74
60246;BME280;46107;53.356;-1.524;2023-04-10T07:23:24;97933.82;;;10.17;76.33
60246;BME280;46107;53.356;-1.524;2023-04-10T07:25:52;97934.84;;;9.76;77.31
60246;BME280;46107;53.356;-1.524;2023-04-10T07:28:19;97927.17;;;10.49;75.67
60246;BME280;46107;53.356;-1.524;2023-04-10T07:30:51;97930.27;;;8.66;80.74
60246;BME280;46107;53.356;-1.524;2023-04-10T07:33:19;97928.75;;;10.39;76.47
60246;BME280;46107;53.356;-1.524;2023-04-10T07:35:46;97926.77;;;9.28;79.58
60246;BME280;46107;53.356;-1.524;2023-04-10T07:38:14;97932.76;;;9.71;77.53
60246;BME280;46107;53.356;-1.524;2023-04-10T07:40:41;97935.50;;;10.15;77.37
60246;BME280;46107;53.356;-1.524;2023-04-10T07:43:09;97930.15;;;9.56;80.28
60246;BME280;46107;53.356;-1.524;2023-04-10T07:45:37;97927.58;;;9.44;80.03
60246;BME280;46107;53.356;-1.524;2023-04-10T07:48:05;97928.88;;;9.58;81.46
60246;BME280;46107;53.356;-1.524;2023-04-10T07:50:33;97923.97;;;9.29;80.43
60246;BME280;46107;53.356;-1.524;2023-04-10T07:53:00;97920.40;;;10.41;78.69
60246;BME280;46107;53.356;-1.524;2023-04-10T07:55:28;97911.23;;;10.16;76.67
60246;BME280;46107;53.356;-1.524;2023-04-10T07:57:55;97904.11;;;10.14;77.01
60246;BME280;46107;53.356;-1.524;2023-04-10T08:00:23;97905.68;;;10.70;75.24
60246;BME280;46107;53.356;-1.524;2023-04-10T08:02:51;97904.93;;;10.54;75.62
60246;BME280;46107;53.356;-1.524;2023-04-10T08:05:19;97895.25;;;9.93;79.24
60246;BME280;46107;53.356;-1.524;2023-04-10T08:07:47;97885.92;;;9.91;78.23
60246;BME280;46107;53.356;-1.524;2023-04-10T08:10:14;97881.69;;;9.88;79.21
60246;BME280;46107;53.356;-1.524;2023-04-10T08:12:42;97885.81;;;9.84;79.70
60246;BME280;46107;53.356;-1.524;2023-04-10T08:15:10;97877.36;;;9.95;78.81
60246;BME280;46107;53.356;-1.524;2023-04-10T08:17:38;97856.79;;;11.58;75.36
60246;BME280;46107;53.356;-1.524;2023-04-10T08:20:07;97867.99;;;10.23;78.92
60246;BME280;46107;53.356;-1.524;2023-04-10T08:22:35;97871.34;;;10.77;77.15
60246;BME280;46107;53.356;-1.524;2023-04-10T08:25:03;97869.62;;;9.68;78.50
60246;BME280;46107;53.356;-1.524;2023-04-10T08:27:31;97867.14;;;10.01;78.29
60246;BME280;46107;53.356;-1.524;2023-04-10T08:29:59;97864.05;;;10.46;76.49
60246;BME280;46107;53.356;-1.524;2023-04-10T08:32:27;97856.94;;;10.64;75.52
60246;BME280;46107;53.356;-1.524;2023-04-10T08:34:55;97856.61;;;10.89;75.82
60246;BME280;46107;53.356;-1.524;2023-04-10T08:37:24;97855.85;;;9.32;79.54
60246;BME280;46107;53.356;-1.524;2023-04-10T08:39:51;97844.53;;;8.91;81.62
60246;BME280;46107;53.356;-1.524;2023-04-10T08:42:19;97840.89;;;10.38;77.45
60246;BME280;46107;53.356;-1.524;2023-04-10T08:44:48;97835.63;;;10.23;78.01
60246;BME280;46107;53.356;-1.524;2023-04-10T08:47:19;97831.12;;;9.88;77.39
60246;BME280;46107;53.356;-1.524;2023-04-10T08:49:52;97819.76;;;10.85;74.88
60246;BME280;46107;53.356;-1.524;2023-04-10T08:52:23;97821.94;;;11.05;76.03
60246;BME280;46107;53.356;-1.524;2023-04-10T08:54:54;97828.90;;;10.72;75.15
60246;BME280;46107;53.356;-1.524;2023-04-10T08:57:23;97829.49;;;9.18;79.18
60246;BME280;46107;53.356;-1.524;2023-04-10T08:59:51;97821.84;;;9.85;78.76
60246;BME280;46107;53.356;-1.524;2023-04-10T09:02:19;97823.23;;;10.33;76.22
60246;BME280;46107;53.356;-1.524;2023-04-10T09:04:48;97820.66;;;10.20;76.44
60246;BME280;46107;53.356;-1.524;2023-04-10T09:07:17;97809.81;;;9.55;75.78
60246;BME280;46107;53.356;-1.524;2023-04-10T09:09:45;97806.13;;;10.33;76.21
60246;BME280;46107;53.356;-1.524;2023-04-10T09:12:13;97801.63;;;9.46;77.37
60246;BME280;46107;53.356;-1.524;2023-04-10T09:14:41;97792.42;;;9.88;75.51
60246;BME280;46107;53.356;-1.524;2023-04-10T09:17:13;97783.57;;;11.48;70.98
60246;BME280;46107;53.356;-1.524;2023-04-10T09:19:42;97785.12;;;10.17;75.13
60246;BME280;46107;53.356;-1.524;2023-04-10T09:22:09;97776.51;;;10.53;73.63
60246;BME280;46107;53.356;-1.524;2023-04-10T09:24:40;97773.34;;;10.89;70.79
60246;BME280;46107;53.356;-1.524;2023-04-10T09:27:09;97770.27;;;11.30;70.48
60246;BME280;46107;53.356;-1.524;2023-04-10T09:29:42;97767.19;;;10.78;72.08
60246;BME280;46107;53.356;-1.524;2023-04-10T09:32:10;97754.78;;;11.01;71.87
60246;BME280;46107;53.356;-1.524;2023-04-10T09:34:55;97747.68;;;10.79;72.65
60246;BME280;46107;53.356;-1.524;2023-04-10T09:37:30;97743.58;;;10.81;71.65
60246;BME280;46107;53.356;-1.524;2023-04-10T09:39:59;97738.05;;;10.61;71.41
60246;BME280;46107;53.356;-1.524;2023-04-10T09:42:31;97737.21;;;11.69;70.27
60246;BME280;46107;53.356;-1.524;2023-04-10T09:44:59;97727.74;;;10.65;74.50
60246;BME280;46107;53.356;-1.524;2023-04-10T09:47:27;97719.92;;;11.07;69.89
60246;BME280;46107;53.356;-1.524;2023-04-10T09:49:58;97712.95;;;10.56;70.09
60246;BME280;46107;53.356;-1.524;2023-04-10T09:52:27;97709.83;;;11.14;69.13
60246;BME280;46107;53.356;-1.524;2023-04-10T09:54:56;97701.32;;;11.16;70.13
60246;BME280;46107;53.356;-1.524;2023-04-10T09:57:25;97696.46;;;10.47;71.70
60246;BME280;46107;53.356;-1.524;2023-04-10T09:59:55;97685.30;;;10.94;69.02
60246;BME280;46107;53.356;-1.524;2023-04-10T10:02:27;97681.05;;;10.27;74.06
60246;BME280;46107;53.356;-1.524;2023-04-10T10:04:56;97664.14;;;10.64;71.88
60246;BME280;46107;53.356;-1.524;2023-04-10T10:07:24;97658.81;;;11.06;69.18
60246;BME280;46107;53.356;-1.524;2023-04-10T10:09:52;97652.63;;;11.44;69.62
60246;BME280;46107;53.356;-1.524;2023-04-10T10:12:23;97649.34;;;12.13;67.26
60246;BME280;46107;53.356;-1.524;2023-04-10T10:14:56;97648.77;;;11.54;66.98
60246;BME280;46107;53.356;-1.524;2023-04-10T10:17:31;97645.43;;;11.01;64.88
60246;BME280;46107;53.356;-1.524;2023-04-10T10:20:03;97649.69;;;10.67;65.77
60246;BME280;46107;53.356;-1.524;2023-04-10T10:22:33;97648.61;;;11.23;65.01
60246;BME280;46107;53.356;-1.524;2023-04-10T10:25:02;97643.27;;;11.36;65.71
60246;BME280;46107;53.356;-1.524;2023-04-10T10:27:30;97644.19;;;11.83;64.25
60246;BME280;46107;53.356;-1.524;2023-04-10T10:30:03;97632.09;;;12.02;66.63
60246;BME280;46107;53.356;-1.524;2023-04-10T10:32:33;97636.34;;;10.56;65.59
60246;BME280;46107;53.356;-1.524;2023-04-10T10:35:02;97630.57;;;11.17;63.21
60246;BME280;46107;53.356;-1.524;2023-04-10T10:37:30;97620.77;;;11.52;63.71
60246;BME280;46107;53.356;-1.524;2023-04-10T10:40:03;97618.91;;;11.19;62.02
60246;BME280;46107;53.356;-1.524;2023-04-10T10:42:37;97628.74;;;11.97;61.24
60246;BME280;46107;53.356;-1.524;2023-04-10T10:45:11;97645.19;;;12.28;60.01
60246;BME280;46107;53.356;-1.524;2023-04-10T10:47:42;97646.68;;;11.16;55.45
60246;BME280;46107;53.356;-1.524;2023-04-10T10:50:12;97631.58;;;9.80;57.50
60246;BME280;46107;53.356;-1.524;2023-04-10T10:52:41;97628.10;;;8.87;60.58
60246;BME280;46107;53.356;-1.524;2023-04-10T10:55:42;97623.70;;;8.47;61.71
60246;BME280;46107;53.356;-1.524;2023-04-10T10:58:09;97604.57;;;9.22;58.23
60246;BME280;46107;53.356;-1.524;2023-04-10T11:01:09;97604.52;;;8.81;60.73
60246;BME280;46107;53.356;-1.524;2023-04-10T11:03:37;97599.06;;;8.58;60.48
60246;BME280;46107;53.356;-1.524;2023-04-10T11:06:07;97590.20;;;9.14;60.22
60246;BME280;46107;53.356;-1.524;2023-04-10T11:08:38;97591.85;;;8.65;60.49
60246;BME280;46107;53.356;-1.524;2023-04-10T11:11:07;97595.58;;;8.29;61.09
60246;BME280;46107;53.356;-1.524;2023-04-10T11:13:36;97593.60;;;8.38;59.97
60246;BME280;46107;53.356;-1.524;2023-04-10T11:16:06;97577.06;;;9.39;60.23
60246;BME280;46107;53.356;-1.524;2023-04-10T11:19:08;97567.99;;;8.02;57.77
60246;BME280;46107;53.356;-1.524;2023-04-10T11:21:37;97562.69;;;7.70;61.22
60246;BME280;46107;53.356;-1.524;2023-04-10T11:24:26;97550.18;;;8.58;60.42
60246;BME280;46107;53.356;-1.524;2023-04-10T11:26:54;97537.91;;;9.65;60.68
60246;BME280;46107;53.356;-1.524;2023-04-10T11:29:38;97539.16;;;10.12;59.28
60246;BME280;46107;53.356;-1.524;2023-04-10T11:32:06;97529.30;;;9.27;57.65
60246;BME280;46107;53.356;-1.524;2023-04-10T11:34:33;97533.67;;;9.74;59.45
60246;BME280;46107;53.356;-1.524;2023-04-10T11:37:09;97532.51;;;10.04;61.03
60246;BME280;46107;53.356;-1.524;2023-04-10T11:39:41;97531.01;;;8.91;64.09
60246;BME280;46107;53.356;-1.524;2023-04-10T11:42:09;97520.61;;;10.06;64.96
60246;BME280;46107;53.356;-1.524;2023-04-10T11:44:36;97516.64;;;10.05;65.12
60246;BME280;46107;53.356;-1.524;2023-04-10T11:47:05;97504.94;;;9.94;65.02
60246;BME280;46107;53.356;-1.524;2023-04-10T11:49:33;97492.85;;;10.72;63.92
60246;BME280;46107;53.356;-1.524;2023-04-10T11:52:00;97485.63;;;10.35;64.28
60246;BME280;46107;53.356;-1.524;2023-04-10T11:54:29;97475.81;;;10.46;66.93
60246;BME280;46107;53.356;-1.524;2023-04-10T11:57:00;97473.37;;;10.30;65.77
60246;BME280;46107;53.356;-1.524;2023-04-10T11:59:29;97468.13;;;9.81;63.99
60246;BME280;46107;53.356;-1.524;2023-04-10T12:02:07;97496.84;;;10.23;65.33
60246;BME280;46107;53.356;-1.524;2023-04-10T12:04:35;97591.74;;;9.64;70.72
60246;BME280;46107;53.356;-1.524;2023-04-10T12:07:03;97568.41;;;7.92;72.50
60246;BME280;46107;53.356;-1.524;2023-04-10T12:09:31;97544.63;;;7.33;76.40
60246;BME280;46107;53.356;-1.524;2023-04-10T12:12:00;97535.89;;;7.77;77.06
60246;BME280;46107;53.356;-1.524;2023-04-10T12:14:30;97523.06;;;8.80;71.50
60246;BME280;46107;53.356;-1.524;2023-04-10T12:16:58;97520.90;;;7.64;74.66
60246;BME280;46107;53.356;-1.524;2023-04-10T12:19:25;97507.26;;;7.80;74.67
60246;BME280;46107;53.356;-1.524;2023-04-10T12:21:54;97502.34;;;8.47;74.96
60246;BME280;46107;53.356;-1.524;2023-04-10T12:24:53;97488.16;;;7.89;76.25
60246;BME280;46107;53.356;-1.524;2023-04-10T12:27:22;97487.05;;;8.21;80.76
60246;BME280;46107;53.356;-1.524;2023-04-10T12:29:52;97478.29;;;8.38;78.91
60246;BME280;46107;53.356;-1.524;2023-04-10T12:32:23;97473.38;;;8.01;80.68
60246;BME280;46107;53.356;-1.524;2023-04-10T12:34:52;97473.28;;;8.80;79.17
60246;BME280;46107;53.356;-1.524;2023-04-10T12:37:20;97467.51;;;8.70;79.52
60246;BME280;46107;53.356;-1.524;2023-04-10T12:39:48;97463.61;;;7.88;78.77
60246;BME280;46107;53.356;-1.524;2023-04-10T12:42:18;97469.90;;;8.10;78.05
60246;BME280;46107;53.356;-1.524;2023-04-10T12:44:50;97456.53;;;7.91;81.69
60246;BME280;46107;53.356;-1.524;2023-04-10T12:47:18;97456.51;;;7.86;78.96
60246;BME280;46107;53.356;-1.524;2023-04-10T12:50:05;97460.65;;;8.38;76.43
60246;BME280;46107;53.356;-1.524;2023-04-10T12:52:33;97450.19;;;7.68;77.74
60246;BME280;46107;53.356;-1.524;2023-04-10T12:55:14;97463.22;;;7.48;75.89
60246;BME280;46107;53.356;-1.524;2023-04-10T12:57:44;97466.08;;;8.59;73.37
60246;BME280;46107;53.356;-1.524;2023-04-10T13:00:14;97473.33;;;7.81;74.27
60246;BME280;46107;53.356;-1.524;2023-04-10T13:02:42;97485.48;;;7.24;74.90
60246;BME280;46107;53.356;-1.524;2023-04-10T13:05:10;97462.69;;;7.10;75.48
60246;BME280;46107;53.356;-1.524;2023-04-10T13:07:38;97476.33;;;7.41;75.96
60246;BME280;46107;53.356;-1.524;2023-04-10T13:10:07;97486.34;;;7.45;77.68